createdAt,value
2018-07-04T00:01:56.488Z,100535.08
2018-07-04T00:04:35.390Z,100538.02
2018-07-04T00:07:14.442Z,100539.32
2018-07-04T00:09:53.243Z,100536.19
2018-07-04T00:12:32.047Z,100540.18
2018-07-04T00:15:10.909Z,100547.11
2018-07-04T00:17:49.895Z,100547.23
2018-07-04T00:20:34.636Z,100542.09
2018-07-04T00:23:13.517Z,100539.31
2018-07-04T00:25:52.487Z,100541.50
2018-07-04T00:28:31.943Z,100547.48
2018-07-04T00:31:11.049Z,100544.47
2018-07-04T00:33:50.042Z,100547.48
2018-07-04T00:36:29.006Z,100555.50
2018-07-04T00:39:07.931Z,100552.63
2018-07-04T00:41:48.096Z,100552.70
2018-07-04T00:44:27.139Z,100558.50
2018-07-04T00:47:06.107Z,100552.20
2018-07-04T00:49:45.039Z,100557.34
2018-07-04T00:52:24.129Z,100556.31
2018-07-04T00:55:03.129Z,100555.91
2018-07-04T00:57:42.070Z,100553.71
2018-07-04T01:00:21.398Z,100559.42
2018-07-04T01:03:00.339Z,100563.21
2018-07-04T01:05:39.052Z,100565.17
2018-07-04T01:08:18.119Z,100561.73
2018-07-04T01:10:57.077Z,100523.88
2018-07-04T01:13:36.098Z,100559.18
2018-07-04T01:16:15.036Z,100563.73
2018-07-04T01:18:54.244Z,100565.64
2018-07-04T01:21:32.998Z,100561.45
2018-07-04T01:24:12.031Z,100561.27
2018-07-04T01:26:51.051Z,100566.58
2018-07-04T01:29:29.826Z,100567.16
2018-07-04T01:32:08.803Z,100567.05
2018-07-04T01:34:47.671Z,100559.72
2018-07-04T01:37:26.653Z,100562.85
2018-07-04T01:40:05.729Z,100565.98
2018-07-04T01:42:44.616Z,100561.99
2018-07-04T01:45:23.904Z,100559.70
2018-07-04T01:48:02.932Z,100560.81
2018-07-04T01:50:41.831Z,100561.02
2018-07-04T01:53:20.704Z,100559.84
2018-07-04T01:55:59.703Z,100567.46
2018-07-04T01:58:38.495Z,100562.61
2018-07-04T02:01:17.240Z,100564.02
2018-07-04T02:03:56.228Z,100562.86
2018-07-04T02:06:35.322Z,100566.09
2018-07-04T02:09:14.227Z,100558.80
2018-07-04T02:11:53.151Z,100564.98
2018-07-04T02:14:32.188Z,100567.42
2018-07-04T02:17:11.086Z,100567.64
2018-07-04T02:19:49.940Z,100570.62
2018-07-04T02:22:28.828Z,100574.25
2018-07-04T02:25:07.751Z,100568.93
2018-07-04T02:27:46.620Z,100565.41
2018-07-04T02:30:25.535Z,100558.23
2018-07-04T02:33:04.404Z,100562.69
2018-07-04T02:35:43.259Z,100557.80
2018-07-04T02:38:22.144Z,100566.05
2018-07-04T02:41:01.113Z,100568.56
2018-07-04T02:43:40.105Z,100559.95
2018-07-04T02:46:24.687Z,100558.60
2018-07-04T02:49:03.427Z,100552.70
2018-07-04T02:51:42.308Z,100548.74
2018-07-04T02:54:21.232Z,100548.85
2018-07-04T02:57:00.132Z,100545.35
2018-07-04T02:59:39.007Z,100546.03
2018-07-04T03:02:17.910Z,100546.78
2018-07-04T03:04:56.723Z,100539.94
2018-07-04T03:07:35.398Z,100541.00
2018-07-04T03:10:14.283Z,100536.83
2018-07-04T03:12:53.231Z,100535.59
2018-07-04T03:15:32.092Z,100537.02
2018-07-04T03:18:10.912Z,100532.02
2018-07-04T03:20:49.750Z,100536.30
2018-07-04T03:23:28.673Z,100529.14
2018-07-04T03:26:07.606Z,100520.97
2018-07-04T03:28:46.543Z,100509.98
2018-07-04T03:31:25.368Z,100522.67
2018-07-04T03:34:04.439Z,100516.89
2018-07-04T03:36:43.192Z,100523.00
2018-07-04T03:39:22.087Z,100522.44
2018-07-04T03:42:01.006Z,100528.30
2018-07-04T03:44:39.982Z,100523.95
2018-07-04T03:47:18.823Z,100521.59
2018-07-04T03:49:57.756Z,100515.83
2018-07-04T03:52:36.814Z,100518.04
2018-07-04T03:55:15.599Z,100508.85
2018-07-04T03:57:54.447Z,100511.83
2018-07-04T04:00:33.352Z,100511.14
2018-07-04T04:03:12.100Z,100502.84
2018-07-04T04:05:51.144Z,100503.33
2018-07-04T04:08:30.139Z,100502.55
2018-07-04T04:11:09.143Z,100493.72
2018-07-04T04:13:48.199Z,100496.08
2018-07-04T04:16:27.062Z,100482.16
2018-07-04T04:19:05.839Z,100489.83
2018-07-04T04:21:44.795Z,100494.84
2018-07-04T04:24:23.686Z,100495.44
2018-07-04T04:27:02.544Z,100490.64
2018-07-04T04:29:41.433Z,100486.76
2018-07-04T04:32:20.247Z,100478.94
2018-07-04T04:34:59.172Z,100488.52
2018-07-04T04:37:38.065Z,100496.59
2018-07-04T04:40:16.912Z,100483.82
2018-07-04T04:42:55.797Z,100485.16
2018-07-04T04:45:34.680Z,100486.34
2018-07-04T04:48:13.615Z,100483.02
2018-07-04T04:50:52.612Z,100482.89
2018-07-04T04:53:31.434Z,100483.34
2018-07-04T04:56:10.210Z,100480.38
2018-07-04T04:58:49.224Z,100482.28
2018-07-04T05:01:28.066Z,100481.67
2018-07-04T05:04:06.835Z,100483.36
2018-07-04T05:06:45.871Z,100478.80
2018-07-04T05:09:24.595Z,100484.11
2018-07-04T05:12:03.479Z,100484.13
2018-07-04T05:14:42.324Z,100487.37
2018-07-04T05:17:21.259Z,100484.20
2018-07-04T05:20:00.036Z,100478.05
2018-07-04T05:22:39.043Z,100473.23
2018-07-04T05:25:17.924Z,100467.02
2018-07-04T05:27:56.817Z,100478.11
2018-07-04T05:30:35.765Z,100468.63
2018-07-04T05:33:14.651Z,100482.39
2018-07-04T05:35:53.488Z,100477.48
2018-07-04T05:38:32.455Z,100468.70
2018-07-04T05:41:11.382Z,100470.88
2018-07-04T05:43:50.368Z,100465.59
2018-07-04T05:46:29.270Z,100468.34
2018-07-04T05:49:08.199Z,100470.08
2018-07-04T05:51:47.118Z,100472.60
2018-07-04T05:54:25.919Z,100470.06
2018-07-04T05:57:04.949Z,100468.00
2018-07-04T05:59:43.780Z,100471.83
2018-07-04T06:02:22.774Z,100462.64
2018-07-04T06:05:01.515Z,100460.74
2018-07-04T06:07:40.443Z,100466.25
2018-07-04T06:10:19.250Z,100460.03
2018-07-04T06:12:58.084Z,100457.89
2018-07-04T06:15:36.923Z,100449.73
2018-07-04T06:18:15.833Z,100455.47
2018-07-04T06:20:55.163Z,100447.67
2018-07-04T06:23:34.027Z,100446.80
2018-07-04T06:26:12.854Z,100441.98
2018-07-04T06:28:51.723Z,100435.77
2018-07-04T06:31:30.775Z,100438.08
2018-07-04T06:34:09.618Z,100430.15
2018-07-04T06:36:48.743Z,100434.89
2018-07-04T06:39:15.337Z,100428.43
2018-07-04T06:41:41.855Z,100427.55
2018-07-04T06:44:08.263Z,100424.17
2018-07-04T06:46:34.656Z,100410.52
2018-07-04T06:49:01.209Z,100414.91
2018-07-04T06:51:27.557Z,100423.69
2018-07-04T06:53:53.970Z,100422.77
2018-07-04T06:56:20.469Z,100431.39
2018-07-04T06:58:46.844Z,100413.23
2018-07-04T07:01:13.297Z,100420.33
2018-07-04T07:03:52.308Z,100417.56
2018-07-04T07:06:31.144Z,100423.00
2018-07-04T07:09:09.947Z,100430.50
2018-07-04T07:11:48.854Z,100431.84
2018-07-04T07:14:27.797Z,100433.16
2018-07-04T07:17:06.620Z,100435.59
2018-07-04T07:19:45.420Z,100425.55
2018-07-04T07:22:24.464Z,100423.02
2018-07-04T07:25:03.301Z,100418.62
2018-07-04T07:27:42.283Z,100418.59
2018-07-04T07:30:21.304Z,100416.91
2018-07-04T07:33:00.184Z,100422.19
2018-07-04T07:35:39.151Z,100413.06
2018-07-04T07:38:18.072Z,100414.94
2018-07-04T07:40:57.177Z,100423.53
2018-07-04T07:43:36.067Z,100428.60
2018-07-04T07:46:14.877Z,100427.27
2018-07-04T07:48:53.866Z,100419.08
2018-07-04T07:51:32.876Z,100425.35
2018-07-04T07:54:11.960Z,100426.84
2018-07-04T07:56:51.070Z,100416.41
2018-07-04T07:59:29.970Z,100420.33
2018-07-04T08:02:08.914Z,100423.35
2018-07-04T08:04:47.748Z,100428.77
2018-07-04T08:07:26.686Z,100429.73
2018-07-04T08:10:05.581Z,100426.20
2018-07-04T08:12:44.615Z,100421.68
2018-07-04T08:15:23.439Z,100420.00
2018-07-04T08:18:02.563Z,100428.44
2018-07-04T08:20:41.490Z,100430.53
2018-07-04T08:23:20.363Z,100422.47
2018-07-04T08:25:59.346Z,100424.86
2018-07-04T08:28:38.277Z,100427.12
2018-07-04T08:31:17.200Z,100433.32
2018-07-04T08:33:56.193Z,100425.25
2018-07-04T08:36:35.264Z,100435.28
2018-07-04T08:39:14.175Z,100431.72
2018-07-04T08:41:53.132Z,100421.94
2018-07-04T08:44:32.107Z,100429.87
2018-07-04T08:47:10.951Z,100425.78
2018-07-04T08:49:49.992Z,100422.91
2018-07-04T08:52:29.062Z,100417.73
2018-07-04T08:55:07.875Z,100420.37
2018-07-04T08:57:46.869Z,100425.70
2018-07-04T09:00:25.774Z,100423.56
2018-07-04T09:03:04.639Z,100424.35
2018-07-04T09:05:43.495Z,100428.08
2018-07-04T09:08:22.383Z,100427.91
2018-07-04T09:11:01.291Z,100422.77
2018-07-04T09:13:40.387Z,100411.48
2018-07-04T09:16:19.460Z,100427.50
2018-07-04T09:18:58.450Z,100425.91
2018-07-04T09:21:37.316Z,100428.44
2018-07-04T09:24:16.062Z,100424.89
2018-07-04T09:26:55.148Z,100422.01
2018-07-04T09:29:34.030Z,100416.84
2018-07-04T09:32:13.057Z,100418.66
2018-07-04T09:34:52.108Z,100428.61
2018-07-04T09:37:31.135Z,100426.32
2018-07-04T09:40:10.143Z,100431.19
2018-07-04T09:42:49.166Z,100431.12
2018-07-04T09:45:27.985Z,100441.48
2018-07-04T09:48:06.813Z,100440.20
2018-07-04T09:50:46.229Z,100443.02
2018-07-04T09:53:25.269Z,100436.63
2018-07-04T09:56:04.076Z,100430.34
2018-07-04T09:58:42.923Z,100432.05
2018-07-04T10:01:24.967Z,100439.15
2018-07-04T10:04:03.780Z,100435.90
2018-07-04T10:06:43.262Z,100437.56
2018-07-04T10:09:22.633Z,100431.81
2018-07-04T10:12:01.914Z,100425.73
2018-07-04T10:14:41.075Z,100435.68
2018-07-04T10:17:20.060Z,100430.76
2018-07-04T10:19:59.604Z,100431.85
2018-07-04T10:22:38.579Z,100424.63
2018-07-04T10:25:17.462Z,100432.27
2018-07-04T10:27:56.283Z,100441.72
2018-07-04T10:30:35.323Z,100435.77
2018-07-04T10:33:14.200Z,100440.13
2018-07-04T10:35:53.055Z,100441.09
2018-07-04T10:38:31.959Z,100441.98
2018-07-04T10:41:10.900Z,100450.30
2018-07-04T10:43:50.033Z,100454.60
2018-07-04T10:46:28.814Z,100458.08
2018-07-04T10:49:07.668Z,100461.23
2018-07-04T10:51:46.590Z,100458.39
2018-07-04T10:54:25.700Z,100464.63
2018-07-04T10:57:04.783Z,100467.61
2018-07-04T10:59:43.582Z,100462.80
2018-07-04T11:02:22.639Z,100467.90
2018-07-04T11:05:01.598Z,100477.66
2018-07-04T11:07:40.577Z,100476.55
2018-07-04T11:10:19.620Z,100478.95
2018-07-04T11:12:58.459Z,100480.97
2018-07-04T11:15:37.539Z,100483.09
2018-07-04T11:18:16.579Z,100477.84
2018-07-04T11:20:55.510Z,100470.71
2018-07-04T11:23:34.486Z,100466.78
2018-07-04T11:26:13.448Z,100464.09
2018-07-04T11:28:53.371Z,100465.88
2018-07-04T11:31:32.364Z,100464.39
2018-07-04T11:34:11.392Z,100457.25
2018-07-04T11:36:50.207Z,100451.30
2018-07-04T11:39:29.160Z,100447.22
2018-07-04T11:42:08.078Z,100445.03
2018-07-04T11:44:46.933Z,100445.47
2018-07-04T11:47:13.344Z,100440.97
2018-07-04T11:49:39.783Z,100430.99
2018-07-04T11:52:06.186Z,100439.94
2018-07-04T11:54:32.674Z,100448.30
2018-07-04T11:56:59.118Z,100454.90
2018-07-04T11:59:25.556Z,100456.98
2018-07-04T12:01:52.001Z,100460.77
2018-07-04T12:04:30.747Z,100472.16
2018-07-04T12:07:01.559Z,100478.19
2018-07-04T12:09:28.015Z,100478.97
2018-07-04T12:11:54.464Z,100470.50
2018-07-04T12:14:20.878Z,100473.21
2018-07-04T12:16:47.300Z,100488.98
2018-07-04T12:19:13.711Z,100501.13
2018-07-04T12:21:40.117Z,100496.54
2018-07-04T12:24:06.580Z,100495.29
2018-07-04T12:26:32.982Z,100493.34
2018-07-04T12:28:59.405Z,100489.62
2018-07-04T12:31:25.864Z,100494.33
2018-07-04T12:33:52.248Z,100498.86
2018-07-04T12:36:18.640Z,100499.55
2018-07-04T12:38:45.048Z,100498.20
2018-07-04T12:41:11.522Z,100501.59
2018-07-04T12:43:38.001Z,100506.63
2018-07-04T12:46:04.441Z,100506.81
2018-07-04T12:48:30.851Z,100516.39
2018-07-04T12:50:57.293Z,100523.09
2018-07-04T12:53:23.726Z,100536.20
2018-07-04T12:56:02.605Z,100534.03
2018-07-04T12:58:41.376Z,100533.33
2018-07-04T13:01:20.271Z,100527.70
2018-07-04T13:03:59.095Z,100525.65
2018-07-04T13:06:38.279Z,100533.45
2018-07-04T13:09:17.016Z,100529.48
2018-07-04T13:11:55.920Z,100534.31
2018-07-04T13:14:34.839Z,100539.31
2018-07-04T13:17:13.784Z,100551.14
2018-07-04T13:19:52.522Z,100548.28
2018-07-04T13:22:31.407Z,100558.87
2018-07-04T13:25:10.619Z,100560.97
2018-07-04T13:27:49.558Z,100564.62
2018-07-04T13:30:28.513Z,100580.03
2018-07-04T13:33:07.317Z,100578.88
2018-07-04T13:35:46.194Z,100578.82
2018-07-04T13:38:25.221Z,100585.05
2018-07-04T13:41:04.119Z,100578.73
2018-07-04T13:43:43.152Z,100571.22
2018-07-04T13:46:22.133Z,100574.13
2018-07-04T13:49:01.020Z,100578.67
2018-07-04T13:51:39.881Z,100574.40
2018-07-04T13:54:18.829Z,100581.45
2018-07-04T13:56:57.571Z,100580.38
2018-07-04T13:59:36.772Z,100583.55
2018-07-04T14:02:15.770Z,100583.91
2018-07-04T14:04:54.799Z,100584.03
2018-07-04T14:07:33.531Z,100590.97
2018-07-04T14:10:12.601Z,100590.73
2018-07-04T14:12:51.535Z,100586.72
2018-07-04T14:15:30.460Z,100585.48
2018-07-04T14:18:09.503Z,100589.28
2018-07-04T14:20:48.413Z,100584.12
2018-07-04T14:23:27.276Z,100581.83
2018-07-04T14:26:06.280Z,100575.48
2018-07-04T14:28:45.349Z,100588.75
2018-07-04T14:31:24.059Z,100581.67
2018-07-04T14:34:03.005Z,100589.91
2018-07-04T14:36:42.059Z,100584.79
2018-07-04T14:39:21.216Z,100586.13
2018-07-04T14:42:00.189Z,100583.11
2018-07-04T14:44:39.119Z,100585.27
2018-07-04T14:47:18.116Z,100591.73
2018-07-04T14:49:57.169Z,100602.48
2018-07-04T14:52:36.107Z,100600.77
2018-07-04T14:55:14.950Z,100600.76
2018-07-04T14:57:53.800Z,100603.92
2018-07-04T15:00:32.822Z,100611.09
2018-07-04T15:03:11.812Z,100607.78
2018-07-04T15:05:50.744Z,100606.20
2018-07-04T15:08:29.793Z,100612.74
2018-07-04T15:11:08.635Z,100607.14
2018-07-04T15:13:47.552Z,100606.53
2018-07-04T15:16:26.519Z,100612.84
2018-07-04T15:19:05.475Z,100607.73
2018-07-04T15:21:44.333Z,100598.47
2018-07-04T15:24:23.207Z,100608.55
2018-07-04T15:27:02.185Z,100601.71
2018-07-04T15:29:41.075Z,100604.02
2018-07-04T15:32:20.032Z,100601.73
2018-07-04T15:34:59.052Z,100593.31
2018-07-04T15:37:38.112Z,100609.06
2018-07-04T15:40:17.148Z,100604.42
2018-07-04T15:42:56.112Z,100600.94
2018-07-04T15:45:35.119Z,100603.86
2018-07-04T15:48:13.947Z,100595.97
2018-07-04T15:50:53.079Z,100598.80
2018-07-04T15:53:32.073Z,100599.28
2018-07-04T15:56:10.989Z,100591.25
2018-07-04T15:58:49.999Z,100595.50
2018-07-04T16:01:29.051Z,100593.20
2018-07-04T16:04:07.899Z,100602.25
2018-07-04T16:06:46.884Z,100598.10
2018-07-04T16:09:25.632Z,100603.59
2018-07-04T16:12:04.518Z,100604.06
2018-07-04T16:14:43.551Z,100588.81
2018-07-04T16:17:22.543Z,100599.05
2018-07-04T16:20:01.744Z,100599.53
2018-07-04T16:22:40.705Z,100599.28
2018-07-04T16:25:19.663Z,100603.53
2018-07-04T16:27:58.665Z,100604.54
2018-07-04T16:30:37.486Z,100592.73
2018-07-04T16:33:16.585Z,100602.39
2018-07-04T16:35:55.384Z,100599.90
2018-07-04T16:38:34.215Z,100605.88
2018-07-04T16:41:12.992Z,100604.20
2018-07-04T16:43:51.992Z,100600.43
2018-07-04T16:46:30.887Z,100597.54
2018-07-04T16:49:09.662Z,100597.92
2018-07-04T16:51:48.589Z,100599.36
2018-07-04T16:54:27.544Z,100594.37
2018-07-04T16:57:06.452Z,100594.73
2018-07-04T16:59:45.281Z,100593.66
2018-07-04T17:02:24.164Z,100590.25
2018-07-04T17:05:03.061Z,100591.45
2018-07-04T17:07:42.047Z,100588.66
2018-07-04T17:10:20.935Z,100592.95
2018-07-04T17:12:59.779Z,100587.20
2018-07-04T17:15:38.637Z,100585.24
2018-07-04T17:18:17.556Z,100585.87
2018-07-04T17:20:56.381Z,100589.16
2018-07-04T17:23:35.296Z,100587.19
2018-07-04T17:26:14.130Z,100582.31
2018-07-04T17:28:53.049Z,100584.66
2018-07-04T17:31:31.960Z,100577.09
2018-07-04T17:34:10.969Z,100582.70
2018-07-04T17:36:49.987Z,100581.47
2018-07-04T17:39:28.794Z,100580.88
2018-07-04T17:42:07.562Z,100582.20
2018-07-04T17:44:46.561Z,100574.25
2018-07-04T17:47:25.674Z,100574.28
2018-07-04T17:50:04.617Z,100574.77
2018-07-04T17:52:43.696Z,100575.27
2018-07-04T17:55:22.511Z,100576.24
2018-07-04T17:58:01.575Z,100569.76
2018-07-04T18:00:40.490Z,100577.95
2018-07-04T18:03:19.503Z,100580.83
2018-07-04T18:05:58.634Z,100581.08
2018-07-04T18:08:37.533Z,100585.84
2018-07-04T18:11:16.468Z,100584.03
2018-07-04T18:13:55.517Z,100582.33
2018-07-04T18:16:34.475Z,100580.75
2018-07-04T18:19:13.318Z,100577.94
2018-07-04T18:21:52.241Z,100581.45
2018-07-04T18:24:31.416Z,100580.13
2018-07-04T18:27:10.277Z,100585.13
2018-07-04T18:29:49.077Z,100579.63
2018-07-04T18:32:27.940Z,100574.27
2018-07-04T18:35:06.971Z,100580.11
2018-07-04T18:37:45.964Z,100577.43
2018-07-04T18:40:24.844Z,100575.87
2018-07-04T18:43:03.662Z,100584.50
2018-07-04T18:45:42.500Z,100574.41
2018-07-04T18:48:21.491Z,100570.87
2018-07-04T18:51:00.251Z,100576.23
2018-07-04T18:53:39.089Z,100568.43
2018-07-04T18:56:17.927Z,100570.73
2018-07-04T18:58:56.865Z,100578.30
2018-07-04T19:01:35.667Z,100575.23
2018-07-04T19:04:14.456Z,100565.99
2018-07-04T19:06:53.248Z,100573.42
2018-07-04T19:09:32.228Z,100575.59
2018-07-04T19:12:11.050Z,100590.22
2018-07-04T19:14:49.995Z,100586.69
2018-07-04T19:17:28.788Z,100584.59
2018-07-04T19:20:07.684Z,100589.23
2018-07-04T19:22:46.698Z,100591.29
2018-07-04T19:25:25.590Z,100598.33
2018-07-04T19:28:04.801Z,100589.00
2018-07-04T19:30:43.736Z,100602.05
2018-07-04T19:33:22.729Z,100588.75
2018-07-04T19:36:01.776Z,100600.41
2018-07-04T19:38:40.608Z,100600.38
2018-07-04T19:41:19.550Z,100599.59
2018-07-04T19:43:58.381Z,100599.82
2018-07-04T19:46:37.270Z,100602.77
2018-07-04T19:49:16.224Z,100604.03
2018-07-04T19:51:55.008Z,100610.33
2018-07-04T19:54:33.895Z,100608.58
2018-07-04T19:57:12.868Z,100604.55
2018-07-04T19:59:51.810Z,100611.09
2018-07-04T20:02:30.721Z,100610.84
2018-07-04T20:05:09.633Z,100616.37
2018-07-04T20:07:48.863Z,100617.55
2018-07-04T20:10:27.583Z,100624.92
2018-07-04T20:13:06.515Z,100620.53
2018-07-04T20:15:45.453Z,100631.88
2018-07-04T20:18:24.358Z,100626.84
2018-07-04T20:21:03.266Z,100627.40
2018-07-04T20:23:42.256Z,100628.73
2018-07-04T20:26:21.123Z,100627.40
2018-07-04T20:29:00.177Z,100630.00
2018-07-04T20:31:39.143Z,100629.21
2018-07-04T20:34:17.998Z,100636.31
2018-07-04T20:36:56.888Z,100633.05
2018-07-04T20:39:35.799Z,100634.55
2018-07-04T20:42:14.731Z,100633.57
2018-07-04T20:44:53.709Z,100635.33
2018-07-04T20:47:32.656Z,100634.81
2018-07-04T20:50:11.654Z,100630.89
2018-07-04T20:52:50.640Z,100625.77
2018-07-04T20:55:29.646Z,100624.86
2018-07-04T20:58:08.564Z,100621.81
2018-07-04T21:00:47.279Z,100624.69
2018-07-04T21:03:26.156Z,100619.21
2018-07-04T21:06:05.573Z,100619.30
2018-07-04T21:08:44.393Z,100621.59
2018-07-04T21:11:23.366Z,100624.94
2018-07-04T21:14:02.264Z,100624.89
2018-07-04T21:16:41.761Z,100625.78
2018-07-04T21:19:20.813Z,100624.45
2018-07-04T21:21:59.732Z,100628.84
2018-07-04T21:24:38.816Z,100632.84
2018-07-04T21:27:17.839Z,100628.02
2018-07-04T21:29:56.622Z,100631.28
2018-07-04T21:32:35.430Z,100629.55
2018-07-04T21:35:14.361Z,100630.23
2018-07-04T21:37:53.346Z,100633.11
2018-07-04T21:40:32.290Z,100636.91
2018-07-04T21:43:11.167Z,100635.69
2018-07-04T21:45:50.055Z,100634.23
2018-07-04T21:48:28.828Z,100640.91
2018-07-04T21:51:07.836Z,100638.55
2018-07-04T21:53:46.924Z,100642.55
2018-07-04T21:56:25.755Z,100639.40
2018-07-04T21:59:04.726Z,100639.99
2018-07-04T22:01:43.608Z,100644.37
2018-07-04T22:04:22.693Z,100647.81
2018-07-04T22:07:02.014Z,100642.67
2018-07-04T22:09:40.917Z,100641.82
2018-07-04T22:12:19.893Z,100643.36
2018-07-04T22:14:58.893Z,100643.09
2018-07-04T22:17:37.875Z,100638.81
2018-07-04T22:20:16.709Z,100647.85
2018-07-04T22:22:56.159Z,100638.05
2018-07-04T22:25:35.083Z,100642.36
2018-07-04T22:28:14.381Z,100637.59
2018-07-04T22:30:53.139Z,100640.84
2018-07-04T22:33:32.130Z,100637.44
2018-07-04T22:36:11.080Z,100637.52
2018-07-04T22:38:50.591Z,100632.19
2018-07-04T22:41:29.636Z,100633.25
2018-07-04T22:44:08.575Z,100626.27
2018-07-04T22:46:48.225Z,100630.01
2018-07-04T22:49:27.145Z,100627.34
2018-07-04T22:52:06.053Z,100623.34
2018-07-04T22:54:45.121Z,100626.59
2018-07-04T22:57:23.917Z,100627.16
2018-07-04T23:00:03.748Z,100631.27
2018-07-04T23:02:42.532Z,100630.52
2018-07-04T23:05:21.736Z,100635.00
2018-07-04T23:08:00.594Z,100638.52
2018-07-04T23:10:39.384Z,100636.80
2018-07-04T23:13:18.388Z,100635.20
2018-07-04T23:15:57.389Z,100629.09
2018-07-04T23:18:36.326Z,100634.06
2018-07-04T23:21:15.443Z,100639.48
2018-07-04T23:23:54.390Z,100642.73
2018-07-04T23:26:33.280Z,100645.95
2018-07-04T23:29:12.476Z,100643.29
2018-07-04T23:31:51.466Z,100644.34
2018-07-04T23:34:30.559Z,100644.43
2018-07-04T23:37:09.501Z,100649.02
2018-07-04T23:39:48.317Z,100646.35
2018-07-04T23:42:27.161Z,100647.30
2018-07-04T23:45:06.167Z,100640.83
2018-07-04T23:47:45.127Z,100645.69
2018-07-04T23:50:23.976Z,100647.61
2018-07-04T23:53:03.019Z,100642.62
2018-07-04T23:55:41.892Z,100642.62
2018-07-04T23:58:21.339Z,100643.69
